PWSweather.com
Personal Weather Stations
Station Observations
IFREISTO2
Freiston, FreistonGB PE22 0QJ

FreistonFreistonGB PE22 0QJ

Lat: 52.964, Lon: 0.041

Elevation: 16

Station Type: Fine Offset

http://www.midlifedad.me.uk/weather

High Low Average
Temperature 58.8°F14.9°C 44.1°F6.7°C 53.3°F11.8°C
Dew Point 58.5°F14.7°C 42.1°F5.6°C 52.4°F11.3°C
Winds 10.2 mph 16.4 kmh Calm Calm 4.0 mph SE6.4 kmh SE
Wind Gusts 21.3 mph34.3 kmh -- 9.0 mph14.5 kmh
Humidity 99% 90% 97%
Pressure 29.83 in1010.2 mb 29.44 in997.0 mb -
Precipitation 0.33 in8.4 mm - -
Hour Temp Dew Point Humidity Winds Wind Gusts Pressure Precip Precip Rate Daily Precip Total
12:00 AM 55.8°F13.2°C 54.9°F12.7°C 97% 1.8 mph SW2.9 kmh SW 3.8 mph6.1 kmh 29.49 in998.6 mb 0.00 in0.0 mm 0.00 in0.0 mm 0.00 in0.0 mm
12:05 AM 55.8°F13.2°C 54.9°F12.7°C 97% 2.0 mph WSW3.2 kmh WSW 3.8 mph6.1 kmh 29.48 in998.3 mb 0.00 in0.0 mm 0.00 in0.0 mm 0.00 in0.0 mm
12:10 AM 55.8°F13.2°C 54.9°F12.7°C 97% 2.0 mph WSW3.2 kmh WSW 4.5 mph7.2 kmh 29.49 in998.6 mb 0.00 in0.0 mm 0.00 in0.0 mm 0.00 in0.0 mm
12:15 AM 55.6°F13.1°C 54.7°F12.6°C 97% 1.8 mph SW2.9 kmh SW 4.5 mph7.2 kmh 29.49 in998.6 mb 0.00 in0.0 mm 0.00 in0.0 mm 0.00 in0.0 mm
12:20 AM 55.4°F13.0°C 54.6°F12.6°C 97% 1.7 mph SW2.7 kmh SW 3.8 mph6.1 kmh 29.49 in998.6 mb 0.00 in0.0 mm 0.00 in0.0 mm 0.00 in0.0 mm
12:25 AM 55.4°F13.0°C 54.6°F12.6°C 97% 2.1 mph SW3.4 kmh SW 4.5 mph7.2 kmh 29.49 in998.6 mb 0.00 in0.0 mm 0.00 in0.0 mm 0.00 in0.0 mm
12:30 AM 55.2°F12.9°C 54.4°F12.4°C 97% 2.5 mph WSW4.0 kmh WSW 4.5 mph7.2 kmh 29.48 in998.3 mb 0.00 in0.0 mm 0.00 in0.0 mm 0.00 in0.0 mm
12:35 AM 55.2°F12.9°C 54.4°F12.4°C 97% 2.6 mph WSW4.2 kmh WSW 4.5 mph7.2 kmh 29.48 in998.3 mb 0.00 in0.0 mm 0.00 in0.0 mm 0.00 in0.0 mm
12:40 AM 55.4°F13.0°C 54.8°F12.7°C 98% 2.7 mph SW4.3 kmh SW 5.4 mph8.7 kmh 29.48 in998.3 mb 0.00 in0.0 mm 0.00 in0.0 mm 0.00 in0.0 mm
12:45 AM 55.4°F13.0°C 54.8°F12.7°C 98% 2.8 mph SW4.5 kmh SW 5.4 mph8.7 kmh 29.48 in998.3 mb 0.00 in0.0 mm 0.00 in0.0 mm 0.00 in0.0 mm
12:50 AM 55.6°F13.1°C 55.0°F12.8°C 98% 3.0 mph SW4.8 kmh SW 5.4 mph8.7 kmh 29.48 in998.3 mb 0.00 in0.0 mm 0.00 in0.0 mm 0.00 in0.0 mm
12:55 AM 55.6°F13.1°C 55.0°F12.8°C 98% 3.2 mph SW5.1 kmh SW 5.4 mph8.7 kmh 29.48 in998.3 mb 0.00 in0.0 mm 0.00 in0.0 mm 0.00 in0.0 mm
01:00 AM 55.4°F13.0°C 54.8°F12.7°C 98% 3.1 mph SW5.0 kmh SW 5.4 mph8.7 kmh 29.48 in998.3 mb 0.00 in0.0 mm 0.00 in0.0 mm 0.00 in0.0 mm
01:05 AM 55.4°F13.0°C 54.8°F12.7°C 98% 3.3 mph SW5.3 kmh SW 5.4 mph8.7 kmh 29.48 in998.3 mb 0.00 in0.0 mm 0.00 in0.0 mm 0.00 in0.0 mm
01:10 AM 55.4°F13.0°C 54.8°F12.7°C 98% 3.4 mph SW5.5 kmh SW 5.4 mph8.7 kmh 29.47 in998.0 mb 0.00 in0.0 mm 0.00 in0.0 mm 0.00 in0.0 mm
01:15 AM 55.2°F12.9°C 54.4°F12.4°C 97% 3.5 mph SW5.6 kmh SW 6.0 mph9.7 kmh 29.48 in998.3 mb 0.00 in0.0 mm 0.00 in0.0 mm 0.00 in0.0 mm
01:20 AM 55.2°F12.9°C 54.4°F12.4°C 97% 3.7 mph SW6.0 kmh SW 6.0 mph9.7 kmh 29.48 in998.3 mb 0.00 in0.0 mm 0.00 in0.0 mm 0.00 in0.0 mm
01:25 AM 55.2°F12.9°C 54.4°F12.4°C 97% 3.6 mph SW5.8 kmh SW 6.0 mph9.7 kmh 29.48 in998.3 mb 0.00 in0.0 mm 0.00 in0.0 mm 0.00 in0.0 mm
01:30 AM 55.2°F12.9°C 54.4°F12.4°C 97% 3.6 mph SW5.8 kmh SW 6.0 mph9.7 kmh 29.48 in998.3 mb 0.00 in0.0 mm 0.00 in0.0 mm 0.00 in0.0 mm
01:35 AM 55.2°F12.9°C 54.4°F12.4°C 97% 3.9 mph WSW6.3 kmh WSW 6.9 mph11.1 kmh 29.47 in998.0 mb 0.00 in0.0 mm 0.00 in0.0 mm 0.00 in0.0 mm
01:40 AM 55.2°F12.9°C 54.4°F12.4°C 97% 4.3 mph SW6.9 kmh SW 6.9 mph11.1 kmh 29.47 in998.0 mb 0.00 in0.0 mm 0.00 in0.0 mm 0.00 in0.0 mm
01:45 AM 55.4°F13.0°C 54.8°F12.7°C 98% 4.4 mph SW7.1 kmh SW 6.9 mph11.1 kmh 29.46 in997.6 mb 0.00 in0.0 mm 0.00 in0.0 mm 0.00 in0.0 mm
01:50 AM 55.4°F13.0°C 54.8°F12.7°C 98% 4.5 mph SW7.2 kmh SW 7.6 mph12.2 kmh 29.46 in997.6 mb 0.00 in0.0 mm 0.00 in0.0 mm 0.00 in0.0 mm
01:55 AM 55.4°F13.0°C 54.8°F12.7°C 98% 4.8 mph WSW7.7 kmh WSW 8.3 mph13.4 kmh 29.46 in997.6 mb 0.00 in0.0 mm 0.00 in0.0 mm 0.00 in0.0 mm
02:00 AM 55.4°F13.0°C 54.8°F12.7°C 98% 4.9 mph WSW7.9 kmh WSW 8.3 mph13.4 kmh 29.46 in997.6 mb 0.00 in0.0 mm 0.00 in0.0 mm 0.00 in0.0 mm
02:05 AM 55.4°F13.0°C 54.8°F12.7°C 98% 4.5 mph SW7.2 kmh SW 7.6 mph12.2 kmh 29.47 in998.0 mb 0.00 in0.0 mm 0.00 in0.0 mm 0.00 in0.0 mm
02:10 AM 55.2°F12.9°C 54.4°F12.4°C 97% 4.3 mph SW6.9 kmh SW 6.9 mph11.1 kmh 29.47 in998.0 mb 0.00 in0.0 mm 0.00 in0.0 mm 0.00 in0.0 mm
02:15 AM 55.2°F12.9°C 54.4°F12.4°C 97% 4.2 mph SW6.8 kmh SW 6.9 mph11.1 kmh 29.47 in998.0 mb 0.00 in0.0 mm 0.00 in0.0 mm 0.00 in0.0 mm
02:20 AM 55.2°F12.9°C 54.4°F12.4°C 97% 3.9 mph SW6.3 kmh SW 6.9 mph11.1 kmh 29.46 in997.6 mb 0.00 in0.0 mm 0.00 in0.0 mm 0.00 in0.0 mm
02:25 AM 55.2°F12.9°C 54.4°F12.4°C 97% 3.9 mph SW6.3 kmh SW 6.9 mph11.1 kmh 29.46 in997.6 mb 0.00 in0.0 mm 0.00 in0.0 mm 0.00 in0.0 mm
02:30 AM 55.2°F12.9°C 54.4°F12.4°C 97% 3.7 mph SW6.0 kmh SW 6.9 mph11.1 kmh 29.46 in997.6 mb 0.00 in0.0 mm 0.00 in0.0 mm 0.00 in0.0 mm
02:35 AM 55.2°F12.9°C 54.4°F12.4°C 97% 3.4 mph SW5.5 kmh SW 5.4 mph8.7 kmh 29.46 in997.6 mb 0.00 in0.0 mm 0.00 in0.0 mm 0.00 in0.0 mm
02:40 AM 55.2°F12.9°C 54.4°F12.4°C 97% 3.5 mph SW5.6 kmh SW 6.0 mph9.7 kmh 29.46 in997.6 mb 0.00 in0.0 mm 0.00 in0.0 mm 0.00 in0.0 mm
02:45 AM 55.2°F12.9°C 54.4°F12.4°C 97% 3.6 mph SW5.8 kmh SW 6.0 mph9.7 kmh 29.46 in997.6 mb 0.00 in0.0 mm 0.00 in0.0 mm 0.00 in0.0 mm
02:50 AM 55.2°F12.9°C 54.4°F12.4°C 97% 3.2 mph SW5.1 kmh SW 6.0 mph9.7 kmh 29.45 in997.3 mb 0.00 in0.0 mm 0.00 in0.0 mm 0.00 in0.0 mm
02:55 AM 55.0°F12.8°C 54.2°F12.3°C 97% 2.7 mph SW4.3 kmh SW 5.4 mph8.7 kmh 29.45 in997.3 mb 0.00 in0.0 mm 0.00 in0.0 mm 0.00 in0.0 mm
03:00 AM 55.0°F12.8°C 54.2°F12.3°C 97% 2.8 mph SW4.5 kmh SW 5.4 mph8.7 kmh 29.45 in997.3 mb 0.00 in0.0 mm 0.00 in0.0 mm 0.00 in0.0 mm
03:05 AM 54.9°F12.7°C 54.0°F12.2°C 97% 2.9 mph SW4.7 kmh SW 4.5 mph7.2 kmh 29.45 in997.3 mb 0.00 in0.0 mm 0.00 in0.0 mm 0.00 in0.0 mm
03:10 AM 54.9°F12.7°C 54.0°F12.2°C 97% 3.1 mph SW5.0 kmh SW 5.4 mph8.7 kmh 29.45 in997.3 mb 0.00 in0.0 mm 0.00 in0.0 mm 0.00 in0.0 mm
03:15 AM 54.9°F12.7°C 54.0°F12.2°C 97% 3.3 mph SW5.3 kmh SW 5.4 mph8.7 kmh 29.45 in997.3 mb 0.00 in0.0 mm 0.00 in0.0 mm 0.00 in0.0 mm
03:20 AM 54.9°F12.7°C 54.0°F12.2°C 97% 3.8 mph WSW6.1 kmh WSW 6.9 mph11.1 kmh 29.44 in997.0 mb 0.00 in0.0 mm 0.00 in0.0 mm 0.00 in0.0 mm
03:25 AM 54.9°F12.7°C 54.0°F12.2°C 97% 4.6 mph SW7.4 kmh SW 6.9 mph11.1 kmh 29.45 in997.3 mb 0.00 in0.0 mm 0.00 in0.0 mm 0.00 in0.0 mm
03:30 AM 54.9°F12.7°C 54.0°F12.2°C 97% 4.5 mph SW7.2 kmh SW 6.9 mph11.1 kmh 29.45 in997.3 mb 0.00 in0.0 mm 0.00 in0.0 mm 0.00 in0.0 mm
03:35 AM 54.9°F12.7°C 54.0°F12.2°C 97% 4.0 mph SW6.4 kmh SW 6.0 mph9.7 kmh 29.45 in997.3 mb 0.00 in0.0 mm 0.00 in0.0 mm 0.00 in0.0 mm
03:40 AM 55.0°F12.8°C 54.2°F12.3°C 97% 4.1 mph SW6.6 kmh SW 6.9 mph11.1 kmh 29.45 in997.3 mb 0.00 in0.0 mm 0.00 in0.0 mm 0.00 in0.0 mm
03:45 AM 55.0°F12.8°C 54.2°F12.3°C 97% 4.3 mph SW6.9 kmh SW 6.9 mph11.1 kmh 29.45 in997.3 mb 0.00 in0.0 mm 0.00 in0.0 mm 0.00 in0.0 mm
03:50 AM 55.0°F12.8°C 54.2°F12.3°C 97% 4.1 mph SW6.6 kmh SW 7.6 mph12.2 kmh 29.45 in997.3 mb 0.00 in0.0 mm 0.00 in0.0 mm 0.00 in0.0 mm
03:55 AM 55.0°F12.8°C 54.2°F12.3°C 97% 3.8 mph SW6.1 kmh SW 7.6 mph12.2 kmh 29.45 in997.3 mb 0.00 in0.0 mm 0.00 in0.0 mm 0.00 in0.0 mm
04:00 AM 55.0°F12.8°C 54.2°F12.3°C 97% 3.6 mph SW5.8 kmh SW 6.0 mph9.7 kmh 29.45 in997.3 mb 0.00 in0.0 mm 0.00 in0.0 mm 0.00 in0.0 mm
04:05 AM 55.2°F12.9°C 54.4°F12.4°C 97% 3.6 mph SW5.8 kmh SW 6.0 mph9.7 kmh 29.45 in997.3 mb 0.00 in0.0 mm 0.00 in0.0 mm 0.00 in0.0 mm
04:10 AM 55.2°F12.9°C 54.4°F12.4°C 97% 3.1 mph SW5.0 kmh SW 6.0 mph9.7 kmh 29.44 in997.0 mb 0.00 in0.0 mm 0.00 in0.0 mm 0.00 in0.0 mm
04:15 AM 55.2°F12.9°C 54.4°F12.4°C 97% 2.5 mph SW4.0 kmh SW 4.5 mph7.2 kmh 29.45 in997.3 mb 0.00 in0.0 mm 0.00 in0.0 mm 0.00 in0.0 mm
04:20 AM 55.2°F12.9°C 54.4°F12.4°C 97% 2.8 mph SW4.5 kmh SW 6.0 mph9.7 kmh 29.45 in997.3 mb 0.00 in0.0 mm 0.00 in0.0 mm 0.00 in0.0 mm
04:25 AM 55.4°F13.0°C 54.8°F12.7°C 98% 3.2 mph SW5.1 kmh SW 6.0 mph9.7 kmh 29.45 in997.3 mb 0.00 in0.0 mm 0.00 in0.0 mm 0.00 in0.0 mm
04:30 AM 55.4°F13.0°C 54.8°F12.7°C 98% 3.2 mph SW5.1 kmh SW 8.3 mph13.4 kmh 29.45 in997.3 mb 0.00 in0.0 mm 0.00 in0.0 mm 0.00 in0.0 mm
04:35 AM 55.4°F13.0°C 54.8°F12.7°C 98% 3.0 mph SW4.8 kmh SW 8.3 mph13.4 kmh 29.45 in997.3 mb 0.00 in0.0 mm 0.00 in0.0 mm 0.00 in0.0 mm
04:40 AM 55.4°F13.0°C 54.8°F12.7°C 98% 1.9 mph W3.1 kmh W 6.0 mph9.7 kmh 29.45 in997.3 mb 0.00 in0.0 mm 0.00 in0.0 mm 0.00 in0.0 mm
04:45 AM 55.4°F13.0°C 54.8°F12.7°C 98% 1.2 mph W1.9 kmh W 4.5 mph7.2 kmh 29.45 in997.3 mb 0.00 in0.0 mm 0.00 in0.0 mm 0.00 in0.0 mm
04:50 AM 55.4°F13.0°C 54.8°F12.7°C 98% 0.7 mph W1.1 kmh W 4.5 mph7.2 kmh 29.45 in997.3 mb 0.00 in0.0 mm 0.00 in0.0 mm 0.00 in0.0 mm
04:55 AM 55.2°F12.9°C 54.4°F12.4°C 97% 0.4 mph W0.6 kmh W 2.2 mph3.5 kmh 29.45 in997.3 mb 0.00 in0.0 mm 0.00 in0.0 mm 0.00 in0.0 mm
05:00 AM 55.2°F12.9°C 54.4°F12.4°C 97% 0.2 mph W0.3 kmh W 2.2 mph3.5 kmh 29.45 in997.3 mb 0.00 in0.0 mm 0.00 in0.0 mm 0.00 in0.0 mm
05:05 AM 55.2°F12.9°C 54.4°F12.4°C 97% Calm Calm 1.6 mph2.6 kmh 29.45 in997.3 mb 0.00 in0.0 mm 0.00 in0.0 mm 0.00 in0.0 mm
05:10 AM 55.2°F12.9°C 54.4°F12.4°C 97% Calm Calm 1.6 mph2.6 kmh 29.44 in997.0 mb 0.00 in0.0 mm 0.00 in0.0 mm 0.00 in0.0 mm
05:15 AM 55.0°F12.8°C 54.2°F12.3°C 97% Calm Calm 0.7 mph1.1 kmh 29.45 in997.3 mb 0.00 in0.0 mm 0.00 in0.0 mm 0.00 in0.0 mm
05:20 AM 54.9°F12.7°C 54.0°F12.2°C 97% Calm Calm 0.7 mph1.1 kmh 29.45 in997.3 mb 0.00 in0.0 mm 0.00 in0.0 mm 0.00 in0.0 mm
05:25 AM 54.7°F12.6°C 53.8°F12.1°C 97% Calm Calm 0.7 mph1.1 kmh 29.45 in997.3 mb 0.00 in0.0 mm 0.00 in0.0 mm 0.00 in0.0 mm
05:30 AM 54.7°F12.6°C 53.8°F12.1°C 97% Calm Calm 0.7 mph1.1 kmh 29.45 in997.3 mb 0.00 in0.0 mm 0.00 in0.0 mm 0.00 in0.0 mm
05:35 AM 54.7°F12.6°C 53.8°F12.1°C 97% Calm Calm 0.7 mph1.1 kmh 29.44 in997.0 mb 0.00 in0.0 mm 0.00 in0.0 mm 0.00 in0.0 mm
05:40 AM 54.9°F12.7°C 54.0°F12.2°C 97% Calm Calm 0.7 mph1.1 kmh 29.45 in997.3 mb 0.00 in0.0 mm 0.00 in0.0 mm 0.00 in0.0 mm
05:45 AM 54.9°F12.7°C 54.0°F12.2°C 97% Calm Calm 0.7 mph1.1 kmh 29.44 in997.0 mb 0.00 in0.0 mm 0.00 in0.0 mm 0.00 in0.0 mm
05:50 AM 54.9°F12.7°C 54.0°F12.2°C 97% Calm Calm 0.7 mph1.1 kmh 29.44 in997.0 mb 0.00 in0.0 mm 0.00 in0.0 mm 0.00 in0.0 mm
05:55 AM 54.9°F12.7°C 54.0°F12.2°C 97% Calm Calm 0.7 mph1.1 kmh 29.44 in997.0 mb 0.00 in0.0 mm 0.00 in0.0 mm 0.00 in0.0 mm
06:00 AM 54.9°F12.7°C 54.0°F12.2°C 97% Calm Calm 0.7 mph1.1 kmh 29.44 in997.0 mb 0.00 in0.0 mm 0.00 in0.0 mm 0.00 in0.0 mm
06:05 AM 54.9°F12.7°C 54.0°F12.2°C 97% Calm Calm 0.7 mph1.1 kmh 29.44 in997.0 mb 0.00 in0.0 mm 0.00 in0.0 mm 0.00 in0.0 mm
06:10 AM 54.9°F12.7°C 54.0°F12.2°C 97% Calm Calm 0.7 mph1.1 kmh 29.44 in997.0 mb 0.00 in0.0 mm 0.00 in0.0 mm 0.00 in0.0 mm
06:15 AM 55.0°F12.8°C 54.2°F12.3°C 97% Calm Calm 1.6 mph2.6 kmh 29.44 in997.0 mb 0.00 in0.0 mm 0.00 in0.0 mm 0.00 in0.0 mm
06:20 AM 55.0°F12.8°C 54.2°F12.3°C 97% Calm Calm 1.6 mph2.6 kmh 29.44 in997.0 mb 0.00 in0.0 mm 0.00 in0.0 mm 0.00 in0.0 mm
06:25 AM 55.0°F12.8°C 54.2°F12.3°C 97% Calm Calm 0.7 mph1.1 kmh 29.44 in997.0 mb 0.00 in0.0 mm 0.00 in0.0 mm 0.00 in0.0 mm
06:30 AM 55.0°F12.8°C 54.2°F12.3°C 97% Calm Calm 0.7 mph1.1 kmh 29.44 in997.0 mb 0.00 in0.0 mm 0.00 in0.0 mm 0.00 in0.0 mm
06:35 AM 55.0°F12.8°C 54.2°F12.3°C 97% Calm Calm 0.7 mph1.1 kmh 29.45 in997.3 mb 0.00 in0.0 mm 0.00 in0.0 mm 0.00 in0.0 mm
06:40 AM 55.2°F12.9°C 54.4°F12.4°C 97% Calm Calm 0.7 mph1.1 kmh 29.45 in997.3 mb 0.01 in0.3 mm 0.12 in3.0 mm 0.01 in0.3 mm
06:45 AM 55.2°F12.9°C 54.4°F12.4°C 97% 0.1 mph W0.2 kmh W 1.6 mph2.6 kmh 29.45 in997.3 mb 0.01 in0.3 mm 0.00 in0.0 mm 0.01 in0.3 mm
06:50 AM 55.2°F12.9°C 54.4°F12.4°C 97% 0.1 mph NNW0.2 kmh NNW 1.6 mph2.6 kmh 29.45 in997.3 mb 0.02 in0.5 mm 0.12 in3.0 mm 0.02 in0.5 mm
06:55 AM 55.2°F12.9°C 54.4°F12.4°C 97% Calm Calm 1.6 mph2.6 kmh 29.45 in997.3 mb 0.02 in0.5 mm 0.00 in0.0 mm 0.02 in0.5 mm
07:00 AM 55.2°F12.9°C 54.4°F12.4°C 97% Calm Calm -- 29.45 in997.3 mb 0.02 in0.5 mm 0.00 in0.0 mm 0.02 in0.5 mm
07:05 AM 55.2°F12.9°C 54.4°F12.4°C 97% Calm Calm -- 29.45 in997.3 mb 0.02 in0.5 mm 0.00 in0.0 mm 0.02 in0.5 mm
07:10 AM 55.4°F13.0°C 55.1°F12.8°C 99% Calm Calm 0.7 mph1.1 kmh 29.45 in997.3 mb 0.04 in1.0 mm 0.24 in6.1 mm 0.04 in1.0 mm
07:15 AM 55.6°F13.1°C 55.3°F12.9°C 99% Calm Calm 0.7 mph1.1 kmh 29.45 in997.3 mb 0.04 in1.0 mm 0.00 in0.0 mm 0.04 in1.0 mm
07:20 AM 55.6°F13.1°C 55.3°F12.9°C 99% 0.1 mph E0.2 kmh E 1.6 mph2.6 kmh 29.45 in997.3 mb 0.04 in1.0 mm 0.00 in0.0 mm 0.04 in1.0 mm
07:25 AM 55.8°F13.2°C 55.5°F13.1°C 99% 0.1 mph E0.2 kmh E 1.6 mph2.6 kmh 29.45 in997.3 mb 0.04 in1.0 mm 0.00 in0.0 mm 0.04 in1.0 mm
07:30 AM 55.8°F13.2°C 55.5°F13.1°C 99% 0.1 mph SSE0.2 kmh SSE 1.6 mph2.6 kmh 29.45 in997.3 mb 0.04 in1.0 mm 0.00 in0.0 mm 0.04 in1.0 mm
07:35 AM 55.9°F13.3°C 55.7°F13.2°C 99% 0.5 mph SE0.8 kmh SE 2.2 mph3.5 kmh 29.45 in997.3 mb 0.04 in1.0 mm 0.00 in0.0 mm 0.04 in1.0 mm
07:40 AM 56.1°F13.4°C 55.8°F13.2°C 99% 0.5 mph ESE0.8 kmh ESE 2.2 mph3.5 kmh 29.45 in997.3 mb 0.02 in0.5 mm 0.00 in0.0 mm 0.04 in1.0 mm
07:45 AM 56.1°F13.4°C 55.8°F13.2°C 99% 0.2 mph SE0.3 kmh SE 1.6 mph2.6 kmh 29.45 in997.3 mb 0.02 in0.5 mm 0.00 in0.0 mm 0.05 in1.3 mm
07:50 AM 56.1°F13.4°C 55.8°F13.2°C 99% 0.2 mph SE0.3 kmh SE 1.6 mph2.6 kmh 29.45 in997.3 mb 0.02 in0.5 mm 0.00 in0.0 mm 0.05 in1.3 mm
07:55 AM 56.3°F13.5°C 56.0°F13.3°C 99% 0.1 mph ESE0.2 kmh ESE 2.2 mph3.5 kmh 29.45 in997.3 mb 0.04 in1.0 mm 0.24 in6.1 mm 0.06 in1.5 mm
08:00 AM 56.3°F13.5°C 56.0°F13.3°C 99% 0.2 mph E0.3 kmh E 2.2 mph3.5 kmh 29.45 in997.3 mb 0.04 in1.0 mm 0.00 in0.0 mm 0.06 in1.5 mm
08:05 AM 56.5°F13.6°C 56.2°F13.4°C 99% 0.6 mph E1.0 kmh E 2.2 mph3.5 kmh 29.45 in997.3 mb 0.05 in1.3 mm 0.12 in3.0 mm 0.07 in1.8 mm
08:10 AM 57.0°F13.9°C 56.7°F13.7°C 99% 0.5 mph E0.8 kmh E 2.2 mph3.5 kmh 29.45 in997.3 mb 0.04 in1.0 mm 0.00 in0.0 mm 0.07 in1.8 mm
08:15 AM 57.4°F14.1°C 56.8°F13.8°C 98% 0.2 mph E0.3 kmh E 2.2 mph3.5 kmh 29.45 in997.3 mb 0.04 in1.0 mm 0.00 in0.0 mm 0.07 in1.8 mm
08:20 AM 57.4°F14.1°C 56.8°F13.8°C 98% 0.3 mph E0.5 kmh E 1.6 mph2.6 kmh 29.45 in997.3 mb 0.04 in1.0 mm 0.00 in0.0 mm 0.07 in1.8 mm
08:25 AM 57.4°F14.1°C 56.8°F13.8°C 98% 0.2 mph E0.3 kmh E 1.6 mph2.6 kmh 29.45 in997.3 mb 0.04 in1.0 mm 0.00 in0.0 mm 0.07 in1.8 mm
08:30 AM 57.6°F14.2°C 57.0°F13.9°C 98% Calm Calm 1.6 mph2.6 kmh 29.45 in997.3 mb 0.04 in1.0 mm 0.00 in0.0 mm 0.07 in1.8 mm
08:35 AM 57.6°F14.2°C 57.0°F13.9°C 98% 0.1 mph ESE0.2 kmh ESE 1.6 mph2.6 kmh 29.45 in997.3 mb 0.04 in1.0 mm 0.00 in0.0 mm 0.07 in1.8 mm
08:40 AM 57.6°F14.2°C 57.0°F13.9°C 98% 0.4 mph E0.6 kmh E 2.2 mph3.5 kmh 29.45 in997.3 mb 0.04 in1.0 mm 0.00 in0.0 mm 0.07 in1.8 mm
08:45 AM 57.9°F14.4°C 57.4°F14.1°C 98% 0.9 mph E1.4 kmh E 2.2 mph3.5 kmh 29.45 in997.3 mb 0.02 in0.5 mm 0.00 in0.0 mm 0.07 in1.8 mm
08:50 AM 58.1°F14.5°C 57.5°F14.2°C 98% 0.7 mph E1.1 kmh E 2.2 mph3.5 kmh 29.45 in997.3 mb 0.02 in0.5 mm 0.00 in0.0 mm 0.07 in1.8 mm
08:55 AM 58.3°F14.6°C 58.0°F14.4°C 99% 0.5 mph NE0.8 kmh NE 1.6 mph2.6 kmh 29.45 in997.3 mb 0.01 in0.3 mm 0.00 in0.0 mm 0.07 in1.8 mm
09:00 AM 58.1°F14.5°C 57.5°F14.2°C 98% 0.9 mph NE1.4 kmh NE 3.1 mph5.0 kmh 29.45 in997.3 mb 0.01 in0.3 mm 0.00 in0.0 mm 0.07 in1.8 mm
09:05 AM 57.9°F14.4°C 57.4°F14.1°C 98% 1.1 mph NE1.8 kmh NE 3.1 mph5.0 kmh 29.45 in997.3 mb 0.01 in0.3 mm 0.00 in0.0 mm 0.08 in2.0 mm
09:10 AM 57.7°F14.3°C 57.2°F14.0°C 98% 1.0 mph NE1.6 kmh NE 2.2 mph3.5 kmh 29.45 in997.3 mb 0.04 in1.0 mm 0.36 in9.1 mm 0.11 in2.8 mm
09:15 AM 57.6°F14.2°C 57.0°F13.9°C 98% 1.4 mph N2.3 kmh N 3.8 mph6.1 kmh 29.45 in997.3 mb 0.09 in2.3 mm 0.60 in15.2 mm 0.17 in4.3 mm
09:20 AM 57.4°F14.1°C 56.8°F13.8°C 98% 1.5 mph N2.4 kmh N 3.8 mph6.1 kmh 29.46 in997.6 mb 0.12 in3.0 mm 0.36 in9.1 mm 0.19 in4.8 mm
09:25 AM 57.2°F14.0°C 56.6°F13.7°C 98% 1.0 mph N1.6 kmh N 3.1 mph5.0 kmh 29.46 in997.6 mb 0.14 in3.6 mm 0.24 in6.1 mm 0.21 in5.3 mm
09:30 AM 57.2°F14.0°C 56.6°F13.7°C 98% 1.1 mph N1.8 kmh N 3.1 mph5.0 kmh 29.46 in997.6 mb 0.17 in4.3 mm 0.36 in9.1 mm 0.24 in6.1 mm
09:35 AM 57.0°F13.9°C 56.7°F13.7°C 99% 0.8 mph NNE1.3 kmh NNE 3.1 mph5.0 kmh 29.46 in997.6 mb 0.19 in4.8 mm 0.24 in6.1 mm 0.26 in6.6 mm
09:40 AM 57.0°F13.9°C 56.7°F13.7°C 99% 0.7 mph NE1.1 kmh NE 2.2 mph3.5 kmh 29.46 in997.6 mb 0.20 in5.1 mm 0.12 in3.0 mm 0.27 in6.9 mm
09:45 AM 57.4°F14.1°C 56.8°F13.8°C 98% 0.9 mph NE1.4 kmh NE 2.2 mph3.5 kmh 29.46 in997.6 mb 0.21 in5.3 mm 0.12 in3.0 mm 0.28 in7.1 mm
09:50 AM 57.6°F14.2°C 57.0°F13.9°C 98% 1.1 mph NE1.8 kmh NE 3.8 mph6.1 kmh 29.46 in997.6 mb 0.21 in5.3 mm 0.00 in0.0 mm 0.28 in7.1 mm
09:55 AM 57.9°F14.4°C 57.6°F14.2°C 99% 1.3 mph NE2.1 kmh NE 3.8 mph6.1 kmh 29.46 in997.6 mb 0.22 in5.6 mm 0.12 in3.0 mm 0.30 in7.6 mm
10:00 AM 58.1°F14.5°C 57.8°F14.3°C 99% 1.4 mph NE2.3 kmh NE 3.8 mph6.1 kmh 29.46 in997.6 mb 0.22 in5.6 mm 0.00 in0.0 mm 0.30 in7.6 mm
10:05 AM 58.1°F14.5°C 57.8°F14.3°C 99% 1.6 mph NE2.6 kmh NE 3.8 mph6.1 kmh 29.46 in997.6 mb 0.21 in5.3 mm 0.00 in0.0 mm 0.30 in7.6 mm
10:10 AM 57.9°F14.4°C 57.6°F14.2°C 99% 1.9 mph NE3.1 kmh NE 3.8 mph6.1 kmh 29.46 in997.6 mb 0.18 in4.6 mm 0.00 in0.0 mm 0.30 in7.6 mm
10:15 AM 57.7°F14.3°C 57.2°F14.0°C 98% 2.6 mph NE4.2 kmh NE 6.0 mph9.7 kmh 29.46 in997.6 mb 0.14 in3.6 mm 0.00 in0.0 mm 0.31 in7.9 mm
10:20 AM 57.7°F14.3°C 57.2°F14.0°C 98% 2.9 mph NE4.7 kmh NE 6.0 mph9.7 kmh 29.46 in997.6 mb 0.12 in3.0 mm 0.00 in0.0 mm 0.31 in7.9 mm
10:25 AM 57.7°F14.3°C 57.2°F14.0°C 98% 3.0 mph NE4.8 kmh NE 6.0 mph9.7 kmh 29.45 in997.3 mb 0.09 in2.3 mm 0.00 in0.0 mm 0.32 in8.1 mm
10:30 AM 58.1°F14.5°C 57.8°F14.3°C 99% 3.0 mph NE4.8 kmh NE 6.0 mph9.7 kmh 29.45 in997.3 mb 0.08 in2.0 mm 0.00 in0.0 mm 0.32 in8.1 mm
10:35 AM 58.6°F14.8°C 58.4°F14.7°C 99% 2.7 mph NE4.3 kmh NE 6.0 mph9.7 kmh 29.45 in997.3 mb 0.06 in1.5 mm 0.00 in0.0 mm 0.32 in8.1 mm
10:40 AM 58.8°F14.9°C 58.5°F14.7°C 99% 2.8 mph NE4.5 kmh NE 6.0 mph9.7 kmh 29.45 in997.3 mb 0.05 in1.3 mm 0.00 in0.0 mm 0.32 in8.1 mm
10:45 AM 58.6°F14.8°C 58.4°F14.7°C 99% 2.9 mph NE4.7 kmh NE 6.0 mph9.7 kmh 29.45 in997.3 mb 0.04 in1.0 mm 0.00 in0.0 mm 0.32 in8.1 mm
10:50 AM 58.3°F14.6°C 58.0°F14.4°C 99% 3.2 mph NE5.1 kmh NE 7.6 mph12.2 kmh 29.45 in997.3 mb 0.04 in1.0 mm 0.00 in0.0 mm 0.32 in8.1 mm
10:55 AM 58.1°F14.5°C 57.8°F14.3°C 99% 3.9 mph NE6.3 kmh NE 8.3 mph13.4 kmh 29.45 in997.3 mb 0.02 in0.5 mm 0.00 in0.0 mm 0.32 in8.1 mm
11:00 AM 57.9°F14.4°C 57.4°F14.1°C 98% 3.7 mph NE6.0 kmh NE 8.3 mph13.4 kmh 29.46 in997.6 mb 0.02 in0.5 mm 0.00 in0.0 mm 0.32 in8.1 mm
11:05 AM 58.1°F14.5°C 57.8°F14.3°C 99% 3.4 mph NE5.5 kmh NE 6.0 mph9.7 kmh 29.45 in997.3 mb 0.02 in0.5 mm 0.00 in0.0 mm 0.32 in8.1 mm
11:10 AM 58.3°F14.6°C 58.0°F14.4°C 99% 3.9 mph NE6.3 kmh NE 6.9 mph11.1 kmh 29.45 in997.3 mb 0.02 in0.5 mm 0.00 in0.0 mm 0.32 in8.1 mm
11:15 AM 58.1°F14.5°C 57.8°F14.3°C 99% 4.9 mph NE7.9 kmh NE 10.7 mph17.2 kmh 29.45 in997.3 mb 0.01 in0.3 mm 0.00 in0.0 mm 0.32 in8.1 mm
11:20 AM 58.5°F14.7°C 58.2°F14.6°C 99% 6.4 mph NE10.3 kmh NE 12.1 mph19.5 kmh 29.45 in997.3 mb 0.01 in0.3 mm 0.00 in0.0 mm 0.32 in8.1 mm
11:25 AM 58.3°F14.6°C 58.0°F14.4°C 99% 7.4 mph NE11.9 kmh NE 13.6 mph21.9 kmh 29.45 in997.3 mb 0.00 in0.0 mm 0.00 in0.0 mm 0.32 in8.1 mm
11:30 AM 57.9°F14.4°C 57.4°F14.1°C 98% 7.3 mph NE11.7 kmh NE 13.6 mph21.9 kmh 29.46 in997.6 mb 0.00 in0.0 mm 0.00 in0.0 mm 0.32 in8.1 mm
11:35 AM 57.6°F14.2°C 57.0°F13.9°C 98% 7.0 mph NE11.3 kmh NE 12.1 mph19.5 kmh 29.46 in997.6 mb 0.00 in0.0 mm 0.00 in0.0 mm 0.32 in8.1 mm
11:40 AM 57.2°F14.0°C 56.6°F13.7°C 98% 7.3 mph NE11.7 kmh NE 12.1 mph19.5 kmh 29.46 in997.6 mb 0.00 in0.0 mm 0.00 in0.0 mm 0.32 in8.1 mm
11:45 AM 57.2°F14.0°C 56.6°F13.7°C 98% 7.4 mph NE11.9 kmh NE 13.6 mph21.9 kmh 29.46 in997.6 mb 0.01 in0.3 mm 0.12 in3.0 mm 0.33 in8.4 mm
11:50 AM 57.4°F14.1°C 56.8°F13.8°C 98% 7.8 mph NE12.6 kmh NE 13.6 mph21.9 kmh 29.46 in997.6 mb 0.01 in0.3 mm 0.00 in0.0 mm 0.33 in8.4 mm
11:55 AM 57.4°F14.1°C 56.8°F13.8°C 98% 8.7 mph NE14.0 kmh NE 15.2 mph24.5 kmh 29.46 in997.6 mb 0.01 in0.3 mm 0.00 in0.0 mm 0.33 in8.4 mm
12:00 PM 57.2°F14.0°C 56.6°F13.7°C 98% 8.7 mph NE14.0 kmh NE 15.2 mph24.5 kmh 29.46 in997.6 mb 0.01 in0.3 mm 0.00 in0.0 mm 0.33 in8.4 mm
12:05 PM 57.0°F13.9°C 56.7°F13.7°C 99% 8.1 mph NE13.0 kmh NE 16.8 mph27.0 kmh 29.46 in997.6 mb 0.01 in0.3 mm 0.00 in0.0 mm 0.33 in8.4 mm
12:10 PM 56.8°F13.8°C 56.6°F13.7°C 99% 8.2 mph NE13.2 kmh NE 16.8 mph27.0 kmh 29.46 in997.6 mb 0.01 in0.3 mm 0.00 in0.0 mm 0.33 in8.4 mm
12:15 PM 56.7°F13.7°C 56.4°F13.6°C 99% 9.0 mph NE14.5 kmh NE 19.0 mph30.6 kmh 29.46 in997.6 mb 0.01 in0.3 mm 0.00 in0.0 mm 0.33 in8.4 mm
12:20 PM 56.7°F13.7°C 56.4°F13.6°C 99% 9.7 mph NE15.6 kmh NE 20.6 mph33.2 kmh 29.46 in997.6 mb 0.01 in0.3 mm 0.00 in0.0 mm 0.33 in8.4 mm
12:25 PM 56.7°F13.7°C 56.4°F13.6°C 99% 9.7 mph ENE15.6 kmh ENE 20.6 mph33.2 kmh 29.46 in997.6 mb 0.01 in0.3 mm 0.00 in0.0 mm 0.33 in8.4 mm
12:30 PM 56.7°F13.7°C 56.4°F13.6°C 99% 9.4 mph ENE15.1 kmh ENE 21.3 mph34.3 kmh 29.46 in997.6 mb 0.01 in0.3 mm 0.00 in0.0 mm 0.33 in8.4 mm
12:35 PM 56.5°F13.6°C 56.2°F13.4°C 99% 9.0 mph ENE14.5 kmh ENE 21.3 mph34.3 kmh 29.46 in997.6 mb 0.01 in0.3 mm 0.00 in0.0 mm 0.33 in8.4 mm
12:40 PM 56.5°F13.6°C 56.2°F13.4°C 99% 8.8 mph NE14.2 kmh NE 19.0 mph30.6 kmh 29.47 in998.0 mb 0.01 in0.3 mm 0.00 in0.0 mm 0.33 in8.4 mm
12:45 PM 56.1°F13.4°C 55.6°F13.1°C 98% 9.4 mph NE15.1 kmh NE 20.6 mph33.2 kmh 29.47 in998.0 mb 0.00 in0.0 mm 0.00 in0.0 mm 0.33 in8.4 mm
12:50 PM 55.9°F13.3°C 55.4°F13.0°C 98% 9.1 mph NE14.6 kmh NE 20.6 mph33.2 kmh 29.47 in998.0 mb 0.00 in0.0 mm 0.00 in0.0 mm 0.33 in8.4 mm
12:55 PM 55.6°F13.1°C 55.0°F12.8°C 98% 8.7 mph NE14.0 kmh NE 19.0 mph30.6 kmh 29.47 in998.0 mb 0.00 in0.0 mm 0.00 in0.0 mm 0.33 in8.4 mm
01:00 PM 55.6°F13.1°C 55.0°F12.8°C 98% 8.8 mph NE14.2 kmh NE 19.0 mph30.6 kmh 29.48 in998.3 mb 0.00 in0.0 mm 0.00 in0.0 mm 0.33 in8.4 mm
01:05 PM 55.4°F13.0°C 54.8°F12.7°C 98% 8.9 mph NE14.3 kmh NE 19.0 mph30.6 kmh 29.48 in998.3 mb 0.00 in0.0 mm 0.00 in0.0 mm 0.33 in8.4 mm
01:10 PM 55.4°F13.0°C 54.8°F12.7°C 98% 8.4 mph NE13.5 kmh NE 13.6 mph21.9 kmh 29.48 in998.3 mb 0.00 in0.0 mm 0.00 in0.0 mm 0.33 in8.4 mm
01:15 PM 55.4°F13.0°C 54.8°F12.7°C 98% 8.2 mph NE13.2 kmh NE 15.9 mph25.6 kmh 29.48 in998.3 mb 0.00 in0.0 mm 0.00 in0.0 mm 0.33 in8.4 mm
01:20 PM 55.2°F12.9°C 54.4°F12.4°C 97% 9.0 mph NE14.5 kmh NE 15.9 mph25.6 kmh 29.48 in998.3 mb 0.00 in0.0 mm 0.00 in0.0 mm 0.33 in8.4 mm
01:25 PM 55.0°F12.8°C 54.2°F12.3°C 97% 8.9 mph NE14.3 kmh NE 18.3 mph29.5 kmh 29.49 in998.6 mb 0.00 in0.0 mm 0.00 in0.0 mm 0.33 in8.4 mm
01:30 PM 55.0°F12.8°C 54.2°F12.3°C 97% 8.0 mph ENE12.9 kmh ENE 18.3 mph29.5 kmh 29.49 in998.6 mb 0.00 in0.0 mm 0.00 in0.0 mm 0.33 in8.4 mm
01:35 PM 55.2°F12.9°C 54.4°F12.4°C 97% 7.4 mph NE11.9 kmh NE 13.0 mph20.9 kmh 29.49 in998.6 mb 0.00 in0.0 mm 0.00 in0.0 mm 0.33 in8.4 mm
01:40 PM 55.2°F12.9°C 54.4°F12.4°C 97% 7.7 mph NE12.4 kmh NE 15.9 mph25.6 kmh 29.49 in998.6 mb 0.00 in0.0 mm 0.00 in0.0 mm 0.33 in8.4 mm
01:45 PM 55.0°F12.8°C 54.2°F12.3°C 97% 8.8 mph NE14.2 kmh NE 15.9 mph25.6 kmh 29.49 in998.6 mb 0.00 in0.0 mm 0.00 in0.0 mm 0.33 in8.4 mm
01:50 PM 54.9°F12.7°C 54.0°F12.2°C 97% 8.4 mph NE13.5 kmh NE 15.2 mph24.5 kmh 29.50 in999.0 mb 0.00 in0.0 mm 0.00 in0.0 mm 0.33 in8.4 mm
01:55 PM 54.7°F12.6°C 53.8°F12.1°C 97% 8.1 mph NE13.0 kmh NE 15.2 mph24.5 kmh 29.50 in999.0 mb 0.00 in0.0 mm 0.00 in0.0 mm 0.33 in8.4 mm
02:00 PM 54.7°F12.6°C 53.8°F12.1°C 97% 8.8 mph NE14.2 kmh NE 15.2 mph24.5 kmh 29.50 in999.0 mb 0.00 in0.0 mm 0.00 in0.0 mm 0.33 in8.4 mm
02:05 PM 54.5°F12.5°C 53.7°F12.1°C 97% 9.7 mph NE15.6 kmh NE 16.8 mph27.0 kmh 29.50 in999.0 mb 0.00 in0.0 mm 0.00 in0.0 mm 0.33 in8.4 mm
02:10 PM 54.5°F12.5°C 53.7°F12.1°C 97% 9.4 mph NE15.1 kmh NE 16.8 mph27.0 kmh 29.50 in999.0 mb 0.00 in0.0 mm 0.00 in0.0 mm 0.33 in8.4 mm
02:15 PM 54.3°F12.4°C 53.5°F11.9°C 97% 8.7 mph NE14.0 kmh NE 16.8 mph27.0 kmh 29.50 in999.0 mb 0.00 in0.0 mm 0.00 in0.0 mm 0.33 in8.4 mm
02:20 PM 54.1°F12.3°C 53.3°F11.8°C 97% 9.5 mph NE15.3 kmh NE 19.0 mph30.6 kmh 29.51 in999.3 mb 0.00 in0.0 mm 0.00 in0.0 mm 0.33 in8.4 mm
02:25 PM 53.6°F12.0°C 52.8°F11.6°C 97% 10.2 mph NE16.4 kmh NE 20.6 mph33.2 kmh 29.51 in999.3 mb 0.00 in0.0 mm 0.00 in0.0 mm 0.33 in8.4 mm
02:30 PM 53.6°F12.0°C 52.8°F11.6°C 97% 9.3 mph NE15.0 kmh NE 20.6 mph33.2 kmh 29.52 in999.7 mb 0.00 in0.0 mm 0.00 in0.0 mm 0.33 in8.4 mm
02:35 PM 53.6°F12.0°C 52.8°F11.6°C 97% 8.7 mph NE14.0 kmh NE 20.6 mph33.2 kmh 29.52 in999.7 mb 0.00 in0.0 mm 0.00 in0.0 mm 0.33 in8.4 mm
02:40 PM 53.2°F11.8°C 52.7°F11.5°C 98% 9.1 mph NE14.6 kmh NE 16.8 mph27.0 kmh 29.52 in999.7 mb 0.00 in0.0 mm 0.00 in0.0 mm 0.33 in8.4 mm
02:45 PM 52.9°F11.6°C 52.3°F11.3°C 98% 9.3 mph NE15.0 kmh NE 16.8 mph27.0 kmh 29.52 in999.7 mb 0.00 in0.0 mm 0.00 in0.0 mm 0.33 in8.4 mm
02:50 PM 52.7°F11.5°C 52.2°F11.2°C 98% 9.0 mph NE14.5 kmh NE 16.8 mph27.0 kmh 29.52 in999.7 mb 0.00 in0.0 mm 0.00 in0.0 mm 0.33 in8.4 mm
02:55 PM 52.5°F11.4°C 52.0°F11.1°C 98% 8.2 mph NE13.2 kmh NE 16.8 mph27.0 kmh 29.52 in999.7 mb 0.00 in0.0 mm 0.00 in0.0 mm 0.33 in8.4 mm
03:00 PM 52.5°F11.4°C 52.0°F11.1°C 98% 7.9 mph NE12.7 kmh NE 15.2 mph24.5 kmh 29.53 in1000.0 mb 0.00 in0.0 mm 0.00 in0.0 mm 0.33 in8.4 mm
03:05 PM 52.3°F11.3°C 51.8°F11.0°C 98% 7.7 mph NE12.4 kmh NE 15.2 mph24.5 kmh 29.53 in1000.0 mb 0.00 in0.0 mm 0.00 in0.0 mm 0.33 in8.4 mm
03:10 PM 52.3°F11.3°C 51.8°F11.0°C 98% 7.7 mph NE12.4 kmh NE 14.5 mph23.3 kmh 29.53 in1000.0 mb 0.00 in0.0 mm 0.00 in0.0 mm 0.33 in8.4 mm
03:15 PM 52.2°F11.2°C 51.6°F10.9°C 98% 7.8 mph NE12.6 kmh NE 13.6 mph21.9 kmh 29.53 in1000.0 mb 0.00 in0.0 mm 0.00 in0.0 mm 0.33 in8.4 mm
03:20 PM 52.2°F11.2°C 51.6°F10.9°C 98% 8.0 mph NE12.9 kmh NE 13.6 mph21.9 kmh 29.53 in1000.0 mb 0.00 in0.0 mm 0.00 in0.0 mm 0.33 in8.4 mm
03:25 PM 52.2°F11.2°C 51.6°F10.9°C 98% 7.5 mph NE12.1 kmh NE 13.0 mph20.9 kmh 29.53 in1000.0 mb 0.00 in0.0 mm 0.00 in0.0 mm 0.33 in8.4 mm
03:30 PM 52.2°F11.2°C 51.6°F10.9°C 98% 7.7 mph NE12.4 kmh NE 16.8 mph27.0 kmh 29.54 in1000.3 mb 0.00 in0.0 mm 0.00 in0.0 mm 0.33 in8.4 mm
03:35 PM 52.2°F11.2°C 51.6°F10.9°C 98% 9.0 mph NNE14.5 kmh NNE 16.8 mph27.0 kmh 29.54 in1000.3 mb 0.00 in0.0 mm 0.00 in0.0 mm 0.33 in8.4 mm
03:40 PM 52.2°F11.2°C 51.6°F10.9°C 98% 9.3 mph NNE15.0 kmh NNE 16.8 mph27.0 kmh 29.54 in1000.3 mb 0.00 in0.0 mm 0.00 in0.0 mm 0.33 in8.4 mm
03:45 PM 52.0°F11.1°C 51.4°F10.8°C 98% 8.9 mph NNE14.3 kmh NNE 16.8 mph27.0 kmh 29.54 in1000.3 mb 0.00 in0.0 mm 0.00 in0.0 mm 0.33 in8.4 mm
03:50 PM 52.0°F11.1°C 51.4°F10.8°C 98% 8.8 mph NE14.2 kmh NE 16.8 mph27.0 kmh 29.54 in1000.3 mb 0.00 in0.0 mm 0.00 in0.0 mm 0.33 in8.4 mm
03:55 PM 52.0°F11.1°C 51.4°F10.8°C 98% 8.6 mph NE13.8 kmh NE 16.8 mph27.0 kmh 29.55 in1000.7 mb 0.00 in0.0 mm 0.00 in0.0 mm 0.33 in8.4 mm
04:00 PM 52.0°F11.1°C 51.4°F10.8°C 98% 9.0 mph NE14.5 kmh NE 16.8 mph27.0 kmh 29.55 in1000.7 mb 0.00 in0.0 mm 0.00 in0.0 mm 0.33 in8.4 mm
04:05 PM 51.8°F11.0°C 51.3°F10.7°C 98% 8.7 mph NE14.0 kmh NE 17.4 mph28.0 kmh 29.55 in1000.7 mb 0.00 in0.0 mm 0.00 in0.0 mm 0.33 in8.4 mm
04:10 PM 51.6°F10.9°C 51.3°F10.7°C 99% 7.8 mph NE12.6 kmh NE 17.4 mph28.0 kmh 29.55 in1000.7 mb 0.00 in0.0 mm 0.00 in0.0 mm 0.33 in8.4 mm
04:15 PM 51.8°F11.0°C 51.3°F10.7°C 98% 7.7 mph NE12.4 kmh NE 15.9 mph25.6 kmh 29.56 in1001.0 mb 0.00 in0.0 mm 0.00 in0.0 mm 0.33 in8.4 mm
04:20 PM 51.6°F10.9°C 51.3°F10.7°C 99% 7.8 mph NE12.6 kmh NE 15.2 mph24.5 kmh 29.57 in1001.4 mb 0.00 in0.0 mm 0.00 in0.0 mm 0.33 in8.4 mm
04:25 PM 51.6°F10.9°C 51.3°F10.7°C 99% 8.6 mph NE13.8 kmh NE 19.0 mph30.6 kmh 29.56 in1001.0 mb 0.00 in0.0 mm 0.00 in0.0 mm 0.33 in8.4 mm
04:30 PM 51.6°F10.9°C 51.3°F10.7°C 99% 8.7 mph NE14.0 kmh NE 19.0 mph30.6 kmh 29.57 in1001.4 mb 0.00 in0.0 mm 0.00 in0.0 mm 0.33 in8.4 mm
04:35 PM 51.4°F10.8°C 51.2°F10.7°C 99% 8.4 mph NE13.5 kmh NE 15.9 mph25.6 kmh 29.57 in1001.4 mb 0.00 in0.0 mm 0.00 in0.0 mm 0.33 in8.4 mm
04:40 PM 51.4°F10.8°C 51.2°F10.7°C 99% 9.0 mph NE14.5 kmh NE 14.5 mph23.3 kmh 29.57 in1001.4 mb 0.00 in0.0 mm 0.00 in0.0 mm 0.33 in8.4 mm
04:45 PM 51.4°F10.8°C 51.2°F10.7°C 99% 9.1 mph NE14.6 kmh NE 16.8 mph27.0 kmh 29.57 in1001.4 mb 0.00 in0.0 mm 0.00 in0.0 mm 0.33 in8.4 mm
04:50 PM 51.4°F10.8°C 51.2°F10.7°C 99% 8.7 mph NNE14.0 kmh NNE 16.8 mph27.0 kmh 29.58 in1001.7 mb 0.00 in0.0 mm 0.00 in0.0 mm 0.33 in8.4 mm
04:55 PM 51.3°F10.7°C 51.0°F10.6°C 99% 8.9 mph NE14.3 kmh NE 20.6 mph33.2 kmh 29.59 in1002.0 mb 0.00 in0.0 mm 0.00 in0.0 mm 0.33 in8.4 mm
05:00 PM 51.3°F10.7°C 51.0°F10.6°C 99% 9.2 mph NNE14.8 kmh NNE 20.6 mph33.2 kmh 29.59 in1002.0 mb 0.00 in0.0 mm 0.00 in0.0 mm 0.33 in8.4 mm
05:05 PM 51.1°F10.6°C 50.5°F10.3°C 98% 8.3 mph NNE13.4 kmh NNE 15.9 mph25.6 kmh 29.59 in1002.0 mb 0.00 in0.0 mm 0.00 in0.0 mm 0.33 in8.4 mm
05:10 PM 51.1°F10.6°C 50.5°F10.3°C 98% 7.5 mph NNE12.1 kmh NNE 13.6 mph21.9 kmh 29.60 in1002.4 mb 0.00 in0.0 mm 0.00 in0.0 mm 0.33 in8.4 mm
05:15 PM 50.9°F10.5°C 50.4°F10.2°C 98% 7.2 mph NE11.6 kmh NE 15.2 mph24.5 kmh 29.60 in1002.4 mb 0.00 in0.0 mm 0.00 in0.0 mm 0.33 in8.4 mm
05:20 PM 50.7°F10.4°C 50.2°F10.1°C 98% 6.9 mph NE11.1 kmh NE 15.2 mph24.5 kmh 29.61 in1002.7 mb 0.00 in0.0 mm 0.00 in0.0 mm 0.33 in8.4 mm
05:25 PM 50.5°F10.3°C 50.0°F10.0°C 98% 7.0 mph NE11.3 kmh NE 14.5 mph23.3 kmh 29.61 in1002.7 mb 0.00 in0.0 mm 0.00 in0.0 mm 0.33 in8.4 mm
05:30 PM 50.5°F10.3°C 50.0°F10.0°C 98% 6.9 mph NE11.1 kmh NE 14.5 mph23.3 kmh 29.61 in1002.7 mb 0.00 in0.0 mm 0.00 in0.0 mm 0.33 in8.4 mm
05:35 PM 50.5°F10.3°C 50.0°F10.0°C 98% 7.4 mph NE11.9 kmh NE 13.6 mph21.9 kmh 29.62 in1003.0 mb 0.00 in0.0 mm 0.00 in0.0 mm 0.33 in8.4 mm
05:40 PM 50.5°F10.3°C 50.0°F10.0°C 98% 7.6 mph NNE12.2 kmh NNE 13.6 mph21.9 kmh 29.62 in1003.0 mb 0.00 in0.0 mm 0.00 in0.0 mm 0.33 in8.4 mm
05:45 PM 50.5°F10.3°C 50.0°F10.0°C 98% 6.9 mph NNE11.1 kmh NNE 13.0 mph20.9 kmh 29.62 in1003.0 mb 0.00 in0.0 mm 0.00 in0.0 mm 0.33 in8.4 mm
05:50 PM 50.5°F10.3°C 50.0°F10.0°C 98% 6.9 mph NNE11.1 kmh NNE 13.6 mph21.9 kmh 29.62 in1003.0 mb 0.00 in0.0 mm 0.00 in0.0 mm 0.33 in8.4 mm
05:55 PM 50.4°F10.2°C 49.8°F9.9°C 98% 7.1 mph NNE11.4 kmh NNE 13.6 mph21.9 kmh 29.62 in1003.0 mb 0.00 in0.0 mm 0.00 in0.0 mm 0.33 in8.4 mm
06:00 PM 50.4°F10.2°C 49.8°F9.9°C 98% 7.2 mph NNE11.6 kmh NNE 15.2 mph24.5 kmh 29.63 in1003.4 mb 0.00 in0.0 mm 0.00 in0.0 mm 0.33 in8.4 mm
06:05 PM 50.4°F10.2°C 49.5°F9.7°C 97% 6.8 mph NNE10.9 kmh NNE 15.2 mph24.5 kmh 29.63 in1003.4 mb 0.00 in0.0 mm 0.00 in0.0 mm 0.33 in8.4 mm
06:10 PM 50.4°F10.2°C 49.5°F9.7°C 97% 6.2 mph NNE10.0 kmh NNE 11.4 mph18.3 kmh 29.63 in1003.4 mb 0.00 in0.0 mm 0.00 in0.0 mm 0.33 in8.4 mm
06:15 PM 50.4°F10.2°C 49.5°F9.7°C 97% 6.5 mph N10.5 kmh N 11.4 mph18.3 kmh 29.64 in1003.7 mb 0.00 in0.0 mm 0.00 in0.0 mm 0.33 in8.4 mm
06:20 PM 50.4°F10.2°C 49.5°F9.7°C 97% 6.8 mph N10.9 kmh N 11.4 mph18.3 kmh 29.64 in1003.7 mb 0.00 in0.0 mm 0.00 in0.0 mm 0.33 in8.4 mm
06:25 PM 50.4°F10.2°C 49.5°F9.7°C 97% 7.0 mph N11.3 kmh N 12.1 mph19.5 kmh 29.65 in1004.1 mb 0.00 in0.0 mm 0.00 in0.0 mm 0.33 in8.4 mm
06:30 PM 50.4°F10.2°C 49.5°F9.7°C 97% 7.0 mph NNE11.3 kmh NNE 12.1 mph19.5 kmh 29.65 in1004.1 mb 0.00 in0.0 mm 0.00 in0.0 mm 0.33 in8.4 mm
06:35 PM 50.4°F10.2°C 49.5°F9.7°C 97% 7.1 mph NNE11.4 kmh NNE 12.1 mph19.5 kmh 29.65 in1004.1 mb 0.00 in0.0 mm 0.00 in0.0 mm 0.33 in8.4 mm
06:40 PM 50.4°F10.2°C 49.5°F9.7°C 97% 7.4 mph N11.9 kmh N 16.8 mph27.0 kmh 29.66 in1004.4 mb 0.00 in0.0 mm 0.00 in0.0 mm 0.33 in8.4 mm
06:45 PM 50.5°F10.3°C 49.7°F9.8°C 97% 7.8 mph N12.6 kmh N 16.8 mph27.0 kmh 29.66 in1004.4 mb 0.00 in0.0 mm 0.00 in0.0 mm 0.33 in8.4 mm
06:50 PM 50.5°F10.3°C 49.7°F9.8°C 97% 8.2 mph N13.2 kmh N 15.9 mph25.6 kmh 29.67 in1004.7 mb 0.00 in0.0 mm 0.00 in0.0 mm 0.33 in8.4 mm
06:55 PM 50.4°F10.2°C 49.5°F9.7°C 97% 8.2 mph N13.2 kmh N 15.2 mph24.5 kmh 29.67 in1004.7 mb 0.00 in0.0 mm 0.00 in0.0 mm 0.33 in8.4 mm
07:00 PM 50.4°F10.2°C 49.3°F9.6°C 96% 7.6 mph N12.2 kmh N 14.5 mph23.3 kmh 29.67 in1004.7 mb 0.00 in0.0 mm 0.00 in0.0 mm 0.33 in8.4 mm
07:05 PM 50.2°F10.1°C 49.1°F9.5°C 96% 7.3 mph N11.7 kmh N 13.6 mph21.9 kmh 29.67 in1004.7 mb 0.00 in0.0 mm 0.00 in0.0 mm 0.33 in8.4 mm
07:10 PM 50.2°F10.1°C 49.1°F9.5°C 96% 7.4 mph N11.9 kmh N 13.6 mph21.9 kmh 29.68 in1005.1 mb 0.00 in0.0 mm 0.00 in0.0 mm 0.33 in8.4 mm
07:15 PM 50.0°F10.0°C 48.9°F9.4°C 96% 7.3 mph NNE11.7 kmh NNE 14.5 mph23.3 kmh 29.68 in1005.1 mb 0.00 in0.0 mm 0.00 in0.0 mm 0.33 in8.4 mm
07:20 PM 50.0°F10.0°C 48.9°F9.4°C 96% 7.3 mph NNE11.7 kmh NNE 14.5 mph23.3 kmh 29.68 in1005.1 mb 0.00 in0.0 mm 0.00 in0.0 mm 0.33 in8.4 mm
07:25 PM 50.0°F10.0°C 48.6°F9.2°C 95% 6.6 mph N10.6 kmh N 14.5 mph23.3 kmh 29.68 in1005.1 mb 0.00 in0.0 mm 0.00 in0.0 mm 0.33 in8.4 mm
07:30 PM 50.0°F10.0°C 48.6°F9.2°C 95% 6.7 mph N10.8 kmh N 13.0 mph20.9 kmh 29.69 in1005.4 mb 0.00 in0.0 mm 0.00 in0.0 mm 0.33 in8.4 mm
07:35 PM 50.0°F10.0°C 48.6°F9.2°C 95% 7.1 mph N11.4 kmh N 13.0 mph20.9 kmh 29.69 in1005.4 mb 0.00 in0.0 mm 0.00 in0.0 mm 0.33 in8.4 mm
07:40 PM 50.0°F10.0°C 48.6°F9.2°C 95% 7.5 mph N12.1 kmh N 13.0 mph20.9 kmh 29.70 in1005.8 mb 0.00 in0.0 mm 0.00 in0.0 mm 0.33 in8.4 mm
07:45 PM 50.0°F10.0°C 48.3°F9.1°C 94% 7.6 mph N12.2 kmh N 13.0 mph20.9 kmh 29.70 in1005.8 mb 0.00 in0.0 mm 0.00 in0.0 mm 0.33 in8.4 mm
07:50 PM 50.0°F10.0°C 48.3°F9.1°C 94% 7.2 mph NNE11.6 kmh NNE 13.0 mph20.9 kmh 29.70 in1005.8 mb 0.00 in0.0 mm 0.00 in0.0 mm 0.33 in8.4 mm
07:55 PM 49.8°F9.9°C 48.4°F9.1°C 95% 6.6 mph N10.6 kmh N 13.0 mph20.9 kmh 29.70 in1005.8 mb 0.00 in0.0 mm 0.00 in0.0 mm 0.33 in8.4 mm
08:00 PM 49.8°F9.9°C 48.2°F9.0°C 94% 6.1 mph N9.8 kmh N 13.0 mph20.9 kmh 29.71 in1006.1 mb 0.00 in0.0 mm 0.00 in0.0 mm 0.33 in8.4 mm
08:05 PM 49.8°F9.9°C 48.2°F9.0°C 94% 7.0 mph N11.3 kmh N 13.6 mph21.9 kmh 29.71 in1006.1 mb 0.00 in0.0 mm 0.00 in0.0 mm 0.33 in8.4 mm
08:10 PM 49.8°F9.9°C 48.2°F9.0°C 94% 7.3 mph N11.7 kmh N 13.6 mph21.9 kmh 29.71 in1006.1 mb 0.00 in0.0 mm 0.00 in0.0 mm 0.33 in8.4 mm
08:15 PM 49.6°F9.8°C 47.7°F8.7°C 93% 6.9 mph N11.1 kmh N 13.6 mph21.9 kmh 29.71 in1006.1 mb 0.00 in0.0 mm 0.00 in0.0 mm 0.33 in8.4 mm
08:20 PM 49.6°F9.8°C 47.7°F8.7°C 93% 6.6 mph NNE10.6 kmh NNE 12.1 mph19.5 kmh 29.72 in1006.4 mb 0.00 in0.0 mm 0.00 in0.0 mm 0.33 in8.4 mm
08:25 PM 49.5°F9.7°C 47.2°F8.4°C 92% 6.0 mph NNE9.7 kmh NNE 11.4 mph18.3 kmh 29.72 in1006.4 mb 0.00 in0.0 mm 0.00 in0.0 mm 0.33 in8.4 mm
08:30 PM 49.1°F9.5°C 46.6°F8.1°C 91% 5.6 mph N9.0 kmh N 9.8 mph15.8 kmh 29.72 in1006.4 mb 0.00 in0.0 mm 0.00 in0.0 mm 0.33 in8.4 mm
08:35 PM 48.9°F9.4°C 46.4°F8.0°C 91% 5.4 mph N8.7 kmh N 9.8 mph15.8 kmh 29.72 in1006.4 mb 0.00 in0.0 mm 0.00 in0.0 mm 0.33 in8.4 mm
08:40 PM 48.7°F9.3°C 45.9°F7.7°C 90% 5.4 mph N8.7 kmh N 9.8 mph15.8 kmh 29.73 in1006.8 mb 0.00 in0.0 mm 0.00 in0.0 mm 0.33 in8.4 mm
08:45 PM 48.6°F9.2°C 45.8°F7.7°C 90% 4.6 mph N7.4 kmh N 9.8 mph15.8 kmh 29.73 in1006.8 mb 0.00 in0.0 mm 0.00 in0.0 mm 0.33 in8.4 mm
08:50 PM 48.4°F9.1°C 45.6°F7.6°C 90% 3.1 mph NNW5.0 kmh NNW 6.9 mph11.1 kmh 29.73 in1006.8 mb 0.00 in0.0 mm 0.00 in0.0 mm 0.33 in8.4 mm
08:55 PM 48.0°F8.9°C 45.2°F7.3°C 90% 2.3 mph N3.7 kmh N 6.0 mph9.7 kmh 29.73 in1006.8 mb 0.00 in0.0 mm 0.00 in0.0 mm 0.33 in8.4 mm
09:00 PM 47.7°F8.7°C 44.9°F7.2°C 90% 2.6 mph N4.2 kmh N 6.9 mph11.1 kmh 29.73 in1006.8 mb 0.00 in0.0 mm 0.00 in0.0 mm 0.33 in8.4 mm
09:05 PM 47.3°F8.5°C 44.5°F6.9°C 90% 2.8 mph N4.5 kmh N 8.3 mph13.4 kmh 29.73 in1006.8 mb 0.00 in0.0 mm 0.00 in0.0 mm 0.33 in8.4 mm
09:10 PM 47.1°F8.4°C 44.3°F6.8°C 90% 2.3 mph N3.7 kmh N 8.3 mph13.4 kmh 29.74 in1007.1 mb 0.00 in0.0 mm 0.00 in0.0 mm 0.33 in8.4 mm
09:15 PM 46.9°F8.3°C 44.2°F6.8°C 90% 1.6 mph N2.6 kmh N 5.4 mph8.7 kmh 29.74 in1007.1 mb 0.00 in0.0 mm 0.00 in0.0 mm 0.33 in8.4 mm
09:20 PM 47.1°F8.4°C 44.3°F6.8°C 90% 1.5 mph NNW2.4 kmh NNW 4.5 mph7.2 kmh 29.74 in1007.1 mb 0.00 in0.0 mm 0.00 in0.0 mm 0.33 in8.4 mm
09:25 PM 47.1°F8.4°C 44.3°F6.8°C 90% 1.1 mph NW1.8 kmh NW 3.8 mph6.1 kmh 29.75 in1007.5 mb 0.00 in0.0 mm 0.00 in0.0 mm 0.33 in8.4 mm
09:30 PM 47.1°F8.4°C 44.3°F6.8°C 90% 0.8 mph NW1.3 kmh NW 3.8 mph6.1 kmh 29.75 in1007.5 mb 0.00 in0.0 mm 0.00 in0.0 mm 0.33 in8.4 mm
09:35 PM 47.3°F8.5°C 44.5°F6.9°C 90% 0.6 mph WSW1.0 kmh WSW 3.8 mph6.1 kmh 29.75 in1007.5 mb 0.00 in0.0 mm 0.00 in0.0 mm 0.33 in8.4 mm
09:40 PM 47.1°F8.4°C 44.3°F6.8°C 90% 0.4 mph W0.6 kmh W 2.2 mph3.5 kmh 29.75 in1007.5 mb 0.00 in0.0 mm 0.00 in0.0 mm 0.33 in8.4 mm
09:45 PM 46.9°F8.3°C 44.2°F6.8°C 90% 0.5 mph W0.8 kmh W 2.2 mph3.5 kmh 29.75 in1007.5 mb 0.00 in0.0 mm 0.00 in0.0 mm 0.33 in8.4 mm
09:50 PM 46.8°F8.2°C 44.0°F6.7°C 90% 0.6 mph NW1.0 kmh NW 3.8 mph6.1 kmh 29.75 in1007.5 mb 0.00 in0.0 mm 0.00 in0.0 mm 0.33 in8.4 mm
09:55 PM 46.6°F8.1°C 43.8°F6.6°C 90% 0.5 mph NNW0.8 kmh NNW 3.8 mph6.1 kmh 29.76 in1007.8 mb 0.00 in0.0 mm 0.00 in0.0 mm 0.33 in8.4 mm
10:00 PM 46.2°F7.9°C 43.7°F6.5°C 91% 0.6 mph NNW1.0 kmh NNW 3.8 mph6.1 kmh 29.76 in1007.8 mb 0.00 in0.0 mm 0.00 in0.0 mm 0.33 in8.4 mm
10:05 PM 46.0°F7.8°C 43.6°F6.4°C 91% 0.7 mph NW1.1 kmh NW 3.8 mph6.1 kmh 29.77 in1008.1 mb 0.00 in0.0 mm 0.00 in0.0 mm 0.33 in8.4 mm
10:10 PM 46.0°F7.8°C 43.6°F6.4°C 91% 0.6 mph WSW1.0 kmh WSW 3.1 mph5.0 kmh 29.77 in1008.1 mb 0.00 in0.0 mm 0.00 in0.0 mm 0.33 in8.4 mm
10:15 PM 45.9°F7.7°C 43.4°F6.3°C 91% 0.5 mph W0.8 kmh W 3.1 mph5.0 kmh 29.77 in1008.1 mb 0.00 in0.0 mm 0.00 in0.0 mm 0.33 in8.4 mm
10:20 PM 45.7°F7.6°C 43.2°F6.2°C 91% 0.3 mph WSW0.5 kmh WSW 2.2 mph3.5 kmh 29.77 in1008.1 mb 0.00 in0.0 mm 0.00 in0.0 mm 0.33 in8.4 mm
10:25 PM 45.5°F7.5°C 43.0°F6.1°C 91% 0.3 mph WNW0.5 kmh WNW 2.2 mph3.5 kmh 29.77 in1008.1 mb 0.00 in0.0 mm 0.00 in0.0 mm 0.33 in8.4 mm
10:30 PM 45.3°F7.4°C 42.8°F6.0°C 91% 0.5 mph NW0.8 kmh NW 3.1 mph5.0 kmh 29.78 in1008.5 mb 0.00 in0.0 mm 0.00 in0.0 mm 0.33 in8.4 mm
10:35 PM 45.1°F7.3°C 42.7°F5.9°C 91% 1.1 mph NW1.8 kmh NW 4.5 mph7.2 kmh 29.78 in1008.5 mb 0.00 in0.0 mm 0.00 in0.0 mm 0.33 in8.4 mm
10:40 PM 45.1°F7.3°C 42.7°F5.9°C 91% 1.3 mph NW2.1 kmh NW 4.5 mph7.2 kmh 29.78 in1008.5 mb 0.00 in0.0 mm 0.00 in0.0 mm 0.33 in8.4 mm
10:45 PM 44.8°F7.1°C 42.3°F5.7°C 91% 0.8 mph WNW1.3 kmh WNW 3.1 mph5.0 kmh 29.78 in1008.5 mb 0.00 in0.0 mm 0.00 in0.0 mm 0.33 in8.4 mm
10:50 PM 44.6°F7.0°C 42.1°F5.6°C 91% 0.6 mph W1.0 kmh W 3.1 mph5.0 kmh 29.79 in1008.8 mb 0.00 in0.0 mm 0.00 in0.0 mm 0.33 in8.4 mm
10:55 PM 44.6°F7.0°C 42.1°F5.6°C 91% 0.8 mph W1.3 kmh W 3.1 mph5.0 kmh 29.79 in1008.8 mb 0.00 in0.0 mm 0.00 in0.0 mm 0.33 in8.4 mm
11:00 PM 44.4°F6.9°C 42.2°F5.7°C 92% 0.9 mph WSW1.4 kmh WSW 3.1 mph5.0 kmh 29.79 in1008.8 mb 0.00 in0.0 mm 0.00 in0.0 mm 0.29 in7.4 mm
11:05 PM 44.2°F6.8°C 42.1°F5.6°C 92% 1.0 mph WSW1.6 kmh WSW 3.1 mph5.0 kmh 29.80 in1009.1 mb 0.00 in0.0 mm 0.00 in0.0 mm 0.29 in7.4 mm
11:10 PM 44.2°F6.8°C 42.1°F5.6°C 92% 1.0 mph SW1.6 kmh SW 3.1 mph5.0 kmh 29.80 in1009.1 mb 0.00 in0.0 mm 0.00 in0.0 mm 0.29 in7.4 mm
11:15 PM 44.2°F6.8°C 42.1°F5.6°C 92% 1.1 mph W1.8 kmh W 3.1 mph5.0 kmh 29.80 in1009.1 mb 0.00 in0.0 mm 0.00 in0.0 mm 0.29 in7.4 mm
11:20 PM 44.1°F6.7°C 42.2°F5.7°C 93% 1.6 mph WNW2.6 kmh WNW 4.5 mph7.2 kmh 29.80 in1009.1 mb 0.00 in0.0 mm 0.00 in0.0 mm 0.29 in7.4 mm
11:25 PM 44.2°F6.8°C 42.3°F5.7°C 93% 2.1 mph WSW3.4 kmh WSW 5.4 mph8.7 kmh 29.81 in1009.5 mb 0.00 in0.0 mm 0.00 in0.0 mm 0.29 in7.4 mm
11:30 PM 44.2°F6.8°C 42.3°F5.7°C 93% 2.2 mph SW3.5 kmh SW 5.4 mph8.7 kmh 29.81 in1009.5 mb 0.00 in0.0 mm 0.00 in0.0 mm 0.29 in7.4 mm
11:35 PM 44.2°F6.8°C 42.3°F5.7°C 93% 2.3 mph WNW3.7 kmh WNW 5.4 mph8.7 kmh 29.82 in1009.8 mb 0.00 in0.0 mm 0.00 in0.0 mm 0.29 in7.4 mm
11:40 PM 44.2°F6.8°C 42.3°F5.7°C 93% 2.3 mph NW3.7 kmh NW 5.4 mph8.7 kmh 29.82 in1009.8 mb 0.00 in0.0 mm 0.00 in0.0 mm 0.29 in7.4 mm
11:45 PM 44.2°F6.8°C 42.3°F5.7°C 93% 2.2 mph NW3.5 kmh NW 6.9 mph11.1 kmh 29.83 in1010.2 mb 0.00 in0.0 mm 0.00 in0.0 mm 0.29 in7.4 mm
11:50 PM 44.4°F6.9°C 42.5°F5.8°C 93% 2.3 mph WNW3.7 kmh WNW 6.9 mph11.1 kmh 29.83 in1010.2 mb 0.00 in0.0 mm 0.00 in0.0 mm 0.29 in7.4 mm
11:55 PM 44.6°F7.0°C 42.4°F5.8°C 92% 2.2 mph W3.5 kmh W 6.0 mph9.7 kmh 29.83 in1010.2 mb 0.00 in0.0 mm 0.00 in0.0 mm 0.29 in7.4 mm